aviador You're here:

KLPR Decoded Metar

LORAIN/ELYRIA in OH, USA
Report Time2017-12-15 22:53:00
UTC Time2017-12-15 23:42:41
Flight Rules vfr VFR
Wind270° at 11 kt
W.Decomp.*RWY 25: 10.0 kt HW 4.5 kt RCW
W.Rank270° ranks 3
Current wind is above 270° avg. (9.6)
Visibility9999 m
Phenomena:N/A
Clouds:Few 022 Hf
Few 038 Hf
Overcast 050 Hf
Expected CloudBase > 2,000 ft AGL from Temp-Dew spread
Ceiling5,000 ft
Temp-4°C (ISA -17)
Dew Point-9°C (69% RH)
AAT-10.9°C
QNH1013 hPa
Density Alt-1,309 ft
Elevation791 ft
Report Wrong Elevation
Raw Report
METAR KLPR 152253Z AUTO 27011KT 10SM FEW022 FEW038 OVC050 M04/M09 A2991
RMK AO2 SNB20E45 SLP141 P0000 T10391089=

Extra information for KLPR:More info

Metar Taf Metar & Taf Last 4 Metars F.Rules Stats Wind Profile Meteogram Temp Stats Airport Information Weather charts Add Link Nearby VenuesMetar ALERT Operation Metar Decoded Social comments

AIRNAV info for KLPR